Irene, TX (76650)

11:00 AM CST on November 22, 2014 (GMT -0600)
Blooming Grove | Change Station
CLOSE
Current Station
Personal Weather Station
Location: Blooming Grove, TX
Elevation: 551 ft
Nearby Weather Stations

Elev 551 ft 32.09 °N, 96.69 °W | Updated 14 minutes ago

Overcast
Overcast
59.4 °F
Feels Like 59.4 °F
N
5.3
Wind Variable Wind from SSW

Today
High -- | Low -- °F
--% Chance of Precip.
Yesterday
High -- | Low -- °F
Precip. -- in
7:02 AM 5:24 PM
New Moon, 0% visible
Pressure 30.02 in
Visibility 4.0 miles
Clouds Overcast 300 ft
Dew Point 59 °F
Humidity 99%
Rainfall 0.00 in
Snow Depth Not available.
UV 1 out of 12
Pollen .60 out of 12
Air Quality Not available.
Flu Activity Not available.
METAR KINJ 221635Z AUTO 14014G20KT 4SM BR OVC003 17/15 A3002 RMK AO2 LTG DSNT SW THRU N T01650151

More Conditions Fewer Conditions

Pressure 30.02 in
Visibility 4.0 miles
Clouds Overcast 300 ft
Dew Point 59 °F
Humidity 99%
Rainfall 0.00 in
Snow Depth Not available.
UV 1 out of 12
Pollen .60 out of 12
Air Quality Not available.
Flu Activity Not available.
METAR KINJ 221635Z AUTO 14014G20KT 4SM BR OVC003 17/15 A3002 RMK AO2 LTG DSNT SW THRU N T01650151

More Conditions Fewer Conditions

Nowcast | as of 8:26 am CST on November 22, 2014

Showers and thunderstorms have continued to develop across portions of north and central Texas this morning. This activity was generally moving towards the north at around 25 mph. Additional showers and thunderstorms can be expected across much of north and central Texas through noon today as an upper level low approaches from the southwest. Widespread severe weather is not anticipated through noon today. The main hazards with thunderstorms will be frequent cloud to ground lightning...periods of heavy rain...small hail and brief gusty winds. Rainfall amounts are generally expected to be on the order of one quarter to half an inch. Higher rainfall amounts are possible with the stronger and slower moving storms. Otherwise...expect mostly cloudy skies with areas of patchy drizzle and fog. Winds will remain out of the southeast at around 10 to 15 mph with temperatures slowly climbing into the low 60s across the Red River. Temperatures may climb into the mid to upper 60s elsewhere.

×

10-Day Weather Forecast

Almanac

Astronomy

Nov. 22, 2014 Rise Set
Actual Time
Civil Twilight
Nautical Twilight
Astronomical Twilight
Moon
Length of Visible Light
Length of Day
Tomorrow will be .
, % of the Moon is Illuminated

Today's Extremes

State Highs State Lows

Community

WunderPhotos

Upload Photos

1,772,860 photos uploaded!

WunderBlogs® & News

Nearby

Air Quality

  Air Quality AQ Index Pollutant
Not available.

Snow Depth

Station Depth Elevation

Earthquake Activity

City Distance Mag. Time & Date
Minimum magnitude displayed is 2.5.

Coastal Water Temperatures

Place Temperature

Nearby Weather Stations